Time;durP1;ratioP1;P1;durP2;ratioP2;P2;SDS_P1;SDS_P2;PMS_P1;PMS_P2;Temp;Humidity;BMP_temperature;BMP_pressure;BME280_temperature;BME280_humidity;BME280_pressure;Samples;Min_cycle;Max_cycle;Signal;HPM_P1;HPM_P2
2022/12/30 00:00:15;;;;;;;18.73;4.80;;;7.00;99.90;;;;;;4980147;28;20044;-83
2022/12/30 00:02:41;;;;;;;19.03;4.77;;;7.00;99.90;;;;;;4995034;28;20108;-81
2022/12/30 00:05:07;;;;;;;21.73;4.90;;;6.90;99.90;;;;;;4979010;28;20460;-84
2022/12/30 00:07:34;;;;;;;20.20;4.63;;;6.90;99.90;;;;;;4979425;28;20082;-83
2022/12/30 00:10:03;;;;;;;18.47;4.80;;;6.90;99.90;;;;;;4979156;28;20042;-82
2022/12/30 00:35:00;;;;;;;18.93;4.50;;;6.70;99.90;;;;;;5008635;28;20052;-81
2022/12/30 00:37:26;;;;;;;18.67;4.10;;;6.70;99.90;;;;;;4999155;28;20061;-83
2022/12/30 00:39:52;;;;;;;21.17;4.47;;;6.70;99.90;;;;;;4983494;28;20046;-83
2022/12/30 00:45:03;;;;;;;18.13;4.13;;;6.60;99.90;;;;;;5015395;28;20486;-85
2022/12/30 00:47:28;;;;;;;26.57;4.67;;;6.60;99.90;;;;;;4998648;28;20045;-83
2022/12/30 00:58:07;;;;;;;25.00;4.77;;;6.50;99.90;;;;;;5014247;28;20054;-84
2022/12/30 01:00:33;;;;;;;21.97;4.33;;;6.50;99.90;;;;;;4998548;28;20038;-81
2022/12/30 01:02:58;;;;;;;19.00;5.07;;;6.50;99.90;;;;;;5014557;28;20104;-84
2022/12/30 01:05:24;;;;;;;19.57;4.27;;;6.50;99.90;;;;;;5014843;28;20071;-82
2022/12/30 01:07:51;;;;;;;18.87;4.47;;;6.50;99.90;;;;;;5014793;28;20461;-83
2022/12/30 01:10:17;;;;;;;21.63;4.90;;;6.50;99.90;;;;;;4998499;28;20041;-84
2022/12/30 01:12:42;;;;;;;16.40;4.13;;;6.50;99.90;;;;;;4997917;28;20049;-82
2022/12/30 01:15:09;;;;;;;23.63;4.80;;;6.40;99.90;;;;;;4998230;28;20059;-83
2022/12/30 01:17:35;;;;;;;17.80;4.67;;;6.40;99.90;;;;;;4981972;28;20042;-84
2022/12/30 01:20:00;;;;;;;14.57;4.20;;;6.40;99.90;;;;;;5015336;28;20125;-84
2022/12/30 01:22:26;;;;;;;25.77;5.00;;;6.40;99.90;;;;;;4998126;28;20394;-82
2022/12/30 01:24:52;;;;;;;18.43;4.30;;;6.40;99.90;;;;;;4997440;28;20038;-83
2022/12/30 01:27:18;;;;;;;16.50;4.80;;;6.40;99.90;;;;;;4981826;28;20825;-82
2022/12/30 01:29:45;;;;;;;17.70;4.37;;;6.40;99.90;;;;;;4997904;28;20033;-83
2022/12/30 01:32:30;;;;;;;22.33;5.10;;;6.40;99.90;;;;;;5015514;28;20108;-84
2022/12/30 01:34:56;;;;;;;19.77;5.07;;;6.40;99.90;;;;;;4997598;28;20091;-84
2022/12/30 01:37:23;;;;;;;17.20;4.60;;;6.40;99.90;;;;;;5014143;28;20077;-85
2022/12/30 01:39:49;;;;;;;16.33;4.10;;;6.40;99.90;;;;;;4997538;28;20034;-84
2022/12/30 01:42:20;;;;;;;14.50;4.40;;;6.40;99.90;;;;;;4997616;28;20521;-82
2022/12/30 01:44:49;;;;;;;21.05;3.97;;;6.40;99.90;;;;;;5004001;28;20449;-82
2022/12/30 01:47:41;;;;;;;15.77;3.67;;;6.40;99.90;;;;;;5014038;28;20050;-85
2022/12/30 01:50:15;;;;;;;14.40;3.70;;;6.40;99.90;;;;;;4989538;28;20508;-83
2022/12/30 01:52:47;;;;;;;18.40;4.17;;;6.40;99.90;;;;;;4997558;28;20041;-82
2022/12/30 01:55:18;;;;;;;16.23;3.87;;;6.40;99.90;;;;;;4997580;28;20074;-83
2022/12/30 01:57:48;;;;;;;17.03;4.33;;;6.30;99.90;;;;;;4997412;28;20504;-82
2022/12/30 02:00:14;;;;;;;13.23;3.90;;;6.30;99.90;;;;;;4997197;28;20096;-84
2022/12/30 02:02:40;;;;;;;17.30;3.93;;;6.30;99.90;;;;;;5013119;28;20418;-82
2022/12/30 02:05:07;;;;;;;17.97;4.20;;;6.30;99.90;;;;;;5013247;28;20124;-84
2022/12/30 02:07:45;;;;;;;19.30;4.63;;;6.30;99.90;;;;;;4965036;28;20096;-82
2022/12/30 02:10:12;;;;;;;21.77;5.33;;;6.30;99.90;;;;;;5013689;28;20073;-82
2022/12/30 02:12:37;;;;;;;20.13;4.53;;;6.30;99.90;;;;;;4997207;28;20048;-84
2022/12/30 02:15:04;;;;;;;19.90;4.90;;;6.30;99.90;;;;;;4992695;28;20398;-85
2022/12/30 02:17:59;;;;;;;13.93;3.90;;;6.30;99.90;;;;;;5002353;28;20497;-84
2022/12/30 02:20:51;;;;;;;15.70;3.93;;;6.20;99.90;;;;;;4996971;28;20045;-84
2022/12/30 02:23:52;;;;;;;19.20;4.95;;;6.20;99.90;;;;;;5013051;28;20508;-84
2022/12/30 02:26:40;;;;;;;19.47;4.20;;;6.10;99.90;;;;;;4960058;28;20093;-85
2022/12/30 02:29:37;;;;;;;21.50;4.80;;;6.10;99.90;;;;;;5010911;28;20136;-84
2022/12/30 02:32:16;;;;;;;14.47;4.03;;;6.10;99.90;;;;;;4997873;28;20049;-83
2022/12/30 02:35:02;;;;;;;17.83;4.23;;;6.10;99.90;;;;;;4995901;28;20041;-85
2022/12/30 02:37:55;;;;;;;17.37;4.60;;;6.10;99.90;;;;;;5011212;28;20041;-85
2022/12/30 02:46:39;;;;;;;23.33;4.47;;;6.10;99.90;;;;;;5012578;28;20077;-85
2022/12/30 02:49:07;;;;;;;14.63;4.70;;;6.00;99.90;;;;;;5013184;28;20124;-85
2022/12/30 02:54:18;;;;;;;17.73;4.87;;;6.00;99.90;;;;;;4992832;28;20050;-83
2022/12/30 02:56:50;;;;;;;17.70;4.43;;;6.00;99.90;;;;;;4961047;28;20042;-84
2022/12/30 03:05:47;;;;;;;17.15;4.40;;;5.90;99.90;;;;;;4993065;28;20395;-82
2022/12/30 03:08:35;;;;;;;14.80;4.10;;;5.90;99.90;;;;;;4992925;28;20733;-83
2022/12/30 03:11:16;;;;;;;19.40;4.40;;;5.90;99.90;;;;;;4992885;28;20042;-85
2022/12/30 03:14:18;;;;;;;22.48;4.78;;;5.80;99.90;;;;;;4995610;28;20046;-85
2022/12/30 03:17:06;;;;;;;14.27;4.10;;;5.80;99.90;;;;;;4992483;28;20081;-83
2022/12/30 03:19:38;;;;;;;12.00;4.30;;;5.80;99.90;;;;;;5005634;28;20049;-85
2022/12/30 03:27:02;;;;;;;20.75;4.07;;;5.80;99.90;;;;;;4976328;28;20115;-84
2022/12/30 03:27:40;;;;;;;15.87;4.83;;;5.70;99.90;;;;;;4985659;28;20799;-85
2022/12/30 03:30:06;;;;;;;16.30;4.07;;;5.70;99.90;;;;;;4995213;28;20056;-84
2022/12/30 03:32:32;;;;;;;14.30;4.20;;;5.60;99.90;;;;;;4995687;28;20049;-84
2022/12/30 03:34:58;;;;;;;17.80;4.30;;;5.60;99.90;;;;;;5011905;28;20470;-84
2022/12/30 03:37:35;;;;;;;16.57;4.20;;;5.60;99.90;;;;;;4979311;28;20077;-84
2022/12/30 03:40:04;;;;;;;18.93;4.73;;;5.50;99.90;;;;;;4995333;28;20053;-84
2022/12/30 03:42:32;;;;;;;18.13;4.03;;;5.50;99.90;;;;;;5011410;28;20045;-84
2022/12/30 03:44:58;;;;;;;13.87;5.03;;;5.50;99.90;;;;;;4995362;28;20049;-85
2022/12/30 03:47:24;;;;;;;16.50;5.00;;;5.40;99.90;;;;;;4995602;28;20088;-85
2022/12/30 03:49:50;;;;;;;12.07;4.70;;;5.40;99.90;;;;;;4995379;28;20077;-84
2022/12/30 03:52:20;;;;;;;14.00;4.70;;;5.40;99.90;;;;;;5011639;28;20088;-85
2022/12/30 03:54:48;;;;;;;14.40;4.83;;;5.40;99.90;;;;;;4995185;28;20108;-85
2022/12/30 03:57:14;;;;;;;14.97;4.73;;;5.40;99.90;;;;;;4995159;28;20521;-86
2022/12/30 03:59:41;;;;;;;17.33;5.13;;;5.30;99.90;;;;;;4978880;28;20799;-85
2022/12/30 04:02:07;;;;;;;19.97;5.23;;;5.30;99.90;;;;;;4995013;28;20104;-85
2022/12/30 04:04:33;;;;;;;24.23;4.67;;;5.30;99.90;;;;;;4995405;28;20417;-85
2022/12/30 04:06:59;;;;;;;15.80;4.60;;;5.20;99.90;;;;;;5011450;28;20050;-84
2022/12/30 04:09:24;;;;;;;16.17;4.87;;;5.20;99.90;;;;;;5011967;28;20045;-85
2022/12/30 04:11:50;;;;;;;15.30;4.97;;;5.20;99.90;;;;;;5011568;28;20560;-85
2022/12/30 04:14:16;;;;;;;15.00;5.30;;;5.20;99.90;;;;;;5027581;28;20077;-85
2022/12/30 04:16:42;;;;;;;22.20;5.23;;;5.30;99.90;;;;;;4995001;28;20052;-84
2022/12/30 04:19:08;;;;;;;19.43;5.10;;;5.30;99.90;;;;;;5011428;28;20417;-84
2022/12/30 04:21:34;;;;;;;17.53;4.67;;;5.30;99.90;;;;;;4995382;28;20037;-84
2022/12/30 04:24:00;;;;;;;18.57;5.03;;;5.40;99.90;;;;;;5011572;28;20709;-85
2022/12/30 04:26:25;;;;;;;13.70;4.63;;;5.40;99.90;;;;;;4979316;28;20524;-84
2022/12/30 04:28:51;;;;;;;14.70;4.73;;;5.30;99.90;;;;;;4994926;28;20432;-84
2022/12/30 04:31:17;;;;;;;19.67;4.90;;;5.30;99.90;;;;;;5011441;28;20045;-85
2022/12/30 04:33:43;;;;;;;17.93;5.20;;;5.30;99.90;;;;;;4995150;28;20397;-84
2022/12/30 04:36:09;;;;;;;15.30;4.63;;;5.30;99.90;;;;;;4995012;28;20117;-85
2022/12/30 04:38:35;;;;;;;18.00;5.20;;;5.30;99.90;;;;;;4994801;28;20801;-86
2022/12/30 04:41:00;;;;;;;15.37;4.50;;;5.20;99.90;;;;;;4994663;28;20042;-85
2022/12/30 04:43:26;;;;;;;14.13;5.30;;;5.20;99.90;;;;;;4978520;28;20041;-84
2022/12/30 04:45:52;;;;;;;15.53;4.97;;;5.20;99.90;;;;;;4994822;28;20050;-87
2022/12/30 04:48:18;;;;;;;18.47;5.17;;;5.20;99.90;;;;;;5008015;28;20102;-86
2022/12/30 04:50:45;;;;;;;21.87;5.63;;;5.20;99.90;;;;;;4975422;28;20042;-85
2022/12/30 04:53:11;;;;;;;13.83;4.70;;;5.20;99.90;;;;;;4975613;28;20046;-85
2022/12/30 04:55:38;;;;;;;10.53;4.53;;;5.10;99.90;;;;;;4975545;28;20045;-86
2022/12/30 04:58:04;;;;;;;18.70;4.90;;;5.10;99.90;;;;;;4989043;28;20068;-84
2022/12/30 05:00:31;;;;;;;17.33;5.53;;;5.00;99.90;;;;;;5013892;28;20042;-85
2022/12/30 05:02:57;;;;;;;20.03;5.20;;;5.00;99.90;;;;;;5014568;28;20520;-85
2022/12/30 05:05:23;;;;;;;15.13;4.80;;;5.00;99.90;;;;;;5014602;28;20038;-85
2022/12/30 05:07:49;;;;;;;14.63;4.40;;;5.00;99.90;;;;;;4982423;28;20080;-85
2022/12/30 05:10:15;;;;;;;15.40;4.80;;;5.00;99.90;;;;;;4998138;28;20088;-85
2022/12/30 05:12:41;;;;;;;19.60;5.07;;;4.90;99.90;;;;;;4998065;28;20045;-84
2022/12/30 05:15:07;;;;;;;17.23;4.93;;;4.90;99.90;;;;;;5001656;28;20081;-84
2022/12/30 05:17:33;;;;;;;15.63;5.03;;;4.90;99.90;;;;;;4981686;28;20050;-84
2022/12/30 05:19:58;;;;;;;12.93;4.30;;;4.90;99.90;;;;;;4998036;28;20076;-84
2022/12/30 05:22:24;;;;;;;14.63;4.20;;;4.90;99.90;;;;;;4997871;28;20116;-86
2022/12/30 05:27:34;;;;;;;14.53;5.33;;;4.80;99.90;;;;;;5012592;28;20559;-85
2022/12/30 05:30:00;;;;;;;15.43;4.70;;;4.80;99.90;;;;;;4997762;28;20136;-85
2022/12/30 05:32:25;;;;;;;19.50;4.97;;;4.80;99.90;;;;;;4981495;28;20132;-84
2022/12/30 05:34:51;;;;;;;14.67;4.60;;;4.80;99.90;;;;;;4997687;28;20153;-84
2022/12/30 05:37:17;;;;;;;10.90;4.23;;;4.80;99.90;;;;;;4997921;28;20073;-84
2022/12/30 05:39:43;;;;;;;19.73;4.40;;;4.80;99.90;;;;;;5013150;28;20061;-85
2022/12/30 05:42:09;;;;;;;14.93;4.37;;;4.80;99.90;;;;;;4996742;28;20128;-86
2022/12/30 05:44:34;;;;;;;13.13;4.27;;;4.80;99.90;;;;;;4978061;28;20052;-84
2022/12/30 05:47:00;;;;;;;12.33;4.30;;;4.80;99.90;;;;;;4978014;28;20073;-85
2022/12/30 05:49:26;;;;;;;15.23;4.30;;;4.80;99.90;;;;;;4988589;28;20100;-85
2022/12/30 05:51:52;;;;;;;16.90;4.50;;;4.80;99.90;;;;;;4997746;28;20092;-84
2022/12/30 05:54:18;;;;;;;16.73;4.23;;;4.70;99.90;;;;;;5013613;28;20044;-85
2022/12/30 05:56:44;;;;;;;15.77;4.40;;;4.70;99.90;;;;;;5013448;28;20049;-86
2022/12/30 05:59:10;;;;;;;16.93;4.63;;;4.70;99.90;;;;;;5013467;28;20145;-85
2022/12/30 06:01:36;;;;;;;14.57;4.20;;;4.70;99.90;;;;;;4997498;28;20030;-85
2022/12/30 06:04:03;;;;;;;16.53;4.30;;;4.70;99.90;;;;;;4997381;28;20053;-84
2022/12/30 06:06:29;;;;;;;11.33;4.60;;;4.70;99.90;;;;;;4997276;28;20861;-84
2022/12/30 06:08:55;;;;;;;19.23;5.23;;;4.70;99.90;;;;;;5011880;28;20049;-84
2022/12/30 06:11:21;;;;;;;12.70;4.07;;;4.60;99.90;;;;;;4975827;28;20044;-85
2022/12/30 06:13:46;;;;;;;15.10;4.30;;;4.70;99.90;;;;;;5011160;28;20049;-83
2022/12/30 06:16:12;;;;;;;22.00;4.50;;;4.70;99.90;;;;;;5009444;28;20124;-83
2022/12/30 06:18:38;;;;;;;14.17;4.20;;;4.60;99.90;;;;;;5011468;28;20409;-85
2022/12/30 06:21:04;;;;;;;12.93;4.10;;;4.60;99.90;;;;;;4994311;28;20488;-84
2022/12/30 06:23:30;;;;;;;14.10;4.40;;;4.60;99.90;;;;;;4977963;28;20044;-85
2022/12/30 06:25:58;;;;;;;14.50;4.03;;;4.60;99.90;;;;;;4994386;28;20073;-82
2022/12/30 06:28:25;;;;;;;13.03;4.60;;;4.60;99.90;;;;;;4994269;28;20108;-85
2022/12/30 06:30:51;;;;;;;16.17;3.87;;;4.60;99.90;;;;;;4993388;28;20088;-84
2022/12/30 06:33:17;;;;;;;12.10;4.17;;;4.60;99.90;;;;;;4994283;28;20037;-84
2022/12/30 06:35:44;;;;;;;16.17;5.23;;;4.60;99.90;;;;;;4993686;28;20121;-84
2022/12/30 06:38:10;;;;;;;15.27;4.60;;;4.60;99.90;;;;;;4977649;28;20116;-84
2022/12/30 06:40:36;;;;;;;15.93;4.37;;;4.60;99.90;;;;;;4975720;28;20125;-84
2022/12/30 06:43:02;;;;;;;18.50;4.57;;;4.60;99.90;;;;;;5009907;28;20038;-84
2022/12/30 06:45:28;;;;;;;17.50;4.33;;;4.60;99.90;;;;;;4979208;28;20482;-84
2022/12/30 06:47:53;;;;;;;13.07;4.43;;;4.60;99.90;;;;;;4992977;28;20579;-83
2022/12/30 06:50:19;;;;;;;20.07;4.43;;;4.60;99.90;;;;;;4963149;28;20475;-83
2022/12/30 06:52:45;;;;;;;15.00;4.43;;;4.60;99.90;;;;;;4995042;28;20041;-84
2022/12/30 06:55:11;;;;;;;12.50;3.93;;;4.50;99.90;;;;;;5013198;28;20081;-84
2022/12/30 06:57:37;;;;;;;12.87;4.20;;;4.50;99.90;;;;;;4995410;28;20041;-84
2022/12/30 07:00:06;;;;;;;15.30;4.10;;;4.60;99.90;;;;;;4979154;28;20042;-87
2022/12/30 07:02:32;;;;;;;18.63;4.03;;;4.60;99.90;;;;;;4995650;28;20061;-84
2022/12/30 07:04:58;;;;;;;13.83;3.70;;;4.60;99.90;;;;;;4996146;28;20041;-85
2022/12/30 07:07:24;;;;;;;13.03;3.97;;;4.50;99.90;;;;;;4996046;28;20030;-85
2022/12/30 07:09:50;;;;;;;13.73;3.50;;;4.60;99.90;;;;;;5012726;28;20452;-83
2022/12/30 07:12:16;;;;;;;13.73;4.13;;;4.60;99.90;;;;;;4979766;28;20054;-85
2022/12/30 07:14:42;;;;;;;10.73;4.07;;;4.60;99.90;;;;;;4995585;28;20046;-84
2022/12/30 07:17:08;;;;;;;16.07;4.20;;;4.60;99.90;;;;;;4995671;28;20400;-86
2022/12/30 07:19:34;;;;;;;16.90;4.60;;;4.60;99.90;;;;;;4995656;28;20041;-84
2022/12/30 07:21:59;;;;;;;15.83;4.33;;;4.60;99.90;;;;;;4978949;28;20414;-84
2022/12/30 07:24:25;;;;;;;11.73;3.70;;;4.50;99.90;;;;;;4995437;28;20060;-83
2022/12/30 07:26:51;;;;;;;12.70;3.40;;;4.60;99.90;;;;;;5011959;28;20120;-84
2022/12/30 07:29:17;;;;;;;13.73;4.53;;;4.60;99.90;;;;;;4979344;28;20048;-83
2022/12/30 07:31:43;;;;;;;15.70;3.90;;;4.50;99.90;;;;;;4979205;28;20045;-84
2022/12/30 07:34:08;;;;;;;13.90;4.40;;;4.60;99.90;;;;;;4979119;28;20425;-84
2022/12/30 07:36:34;;;;;;;15.33;4.07;;;4.60;99.90;;;;;;4978901;28;20080;-84
2022/12/30 07:39:01;;;;;;;12.50;4.57;;;4.60;99.90;;;;;;5010724;28;20062;-85
2022/12/30 07:41:27;;;;;;;16.40;3.87;;;4.60;99.90;;;;;;5002129;28;20367;-84
2022/12/30 07:43:53;;;;;;;21.60;4.43;;;4.60;99.90;;;;;;4998096;28;20039;-84
2022/12/30 07:46:19;;;;;;;13.40;4.03;;;4.60;99.90;;;;;;4995243;28;20046;-86
2022/12/30 07:48:45;;;;;;;17.40;3.93;;;4.60;99.90;;;;;;4994952;28;20046;-85
2022/12/30 07:51:13;;;;;;;12.73;4.37;;;4.60;99.90;;;;;;4978388;28;20117;-85
2022/12/30 07:53:40;;;;;;;18.03;4.13;;;4.60;99.90;;;;;;4986284;28;20049;-86
2022/12/30 07:56:08;;;;;;;11.80;3.67;;;4.60;99.90;;;;;;4993174;28;20037;-84
2022/12/30 07:58:34;;;;;;;15.27;4.97;;;4.60;99.90;;;;;;4993410;28;20041;-85
2022/12/30 08:01:08;;;;;;;12.83;3.90;;;4.60;99.90;;;;;;5008681;28;20033;-82
2022/12/30 08:03:34;;;;;;;19.33;3.90;;;4.60;99.90;;;;;;4991668;28;20060;-84
2022/12/30 08:06:05;;;;;;;15.30;4.23;;;4.60;99.90;;;;;;4977091;28;20046;-86
2022/12/30 08:08:31;;;;;;;15.10;4.40;;;4.60;99.90;;;;;;4992969;28;20041;-83
2022/12/30 08:10:58;;;;;;;9.57;3.50;;;4.70;99.90;;;;;;4992727;28;20327;-84
2022/12/30 08:13:24;;;;;;;12.67;4.37;;;4.70;99.90;;;;;;4992917;28;20092;-83
2022/12/30 08:15:50;;;;;;;13.67;3.80;;;4.80;99.90;;;;;;4994318;28;20441;-84
2022/12/30 08:18:15;;;;;;;14.43;3.70;;;4.80;99.90;;;;;;4964743;28;20104;-84
2022/12/30 08:20:41;;;;;;;13.57;3.90;;;4.80;99.90;;;;;;5010303;28;20045;-82
2022/12/30 08:23:07;;;;;;;18.90;4.37;;;4.80;99.90;;;;;;5009517;28;20034;-82
2022/12/30 08:25:33;;;;;;;13.00;4.10;;;4.90;99.90;;;;;;4978283;28;20038;-83
2022/12/30 08:27:59;;;;;;;18.40;4.53;;;4.90;99.90;;;;;;4978181;28;21028;-82
2022/12/30 08:30:25;;;;;;;15.90;4.47;;;5.00;99.90;;;;;;4962692;28;20128;-82
2022/12/30 08:32:51;;;;;;;15.40;4.40;;;5.00;99.90;;;;;;4970756;28;20169;-83
2022/12/30 08:35:17;;;;;;;17.87;3.90;;;5.00;99.90;;;;;;4961193;28;20129;-84
2022/12/30 08:37:43;;;;;;;11.37;3.53;;;5.00;99.90;;;;;;4972070;28;20042;-84
2022/12/30 08:40:10;;;;;;;16.20;4.30;;;5.00;99.90;;;;;;4998322;28;20041;-84
2022/12/30 08:42:36;;;;;;;18.27;4.70;;;5.10;99.90;;;;;;4998554;28;20448;-85
2022/12/30 08:45:03;;;;;;;18.50;4.50;;;5.10;99.90;;;;;;5014630;28;20041;-86
2022/12/30 08:47:29;;;;;;;10.33;3.33;;;5.10;99.90;;;;;;5014757;28;20042;-84
2022/12/30 08:49:55;;;;;;;17.10;4.43;;;5.20;99.90;;;;;;4995182;28;20620;-83
2022/12/30 08:52:21;;;;;;;20.93;4.63;;;5.20;99.90;;;;;;4990625;28;20552;-83
2022/12/30 08:54:46;;;;;;;11.97;3.93;;;5.30;99.90;;;;;;4990788;28;20048;-82
2022/12/30 08:57:12;;;;;;;14.37;4.53;;;5.30;99.90;;;;;;4998304;28;20067;-82
2022/12/30 08:59:39;;;;;;;15.27;5.10;;;5.30;99.90;;;;;;4979888;28;20048;-85
2022/12/30 09:02:05;;;;;;;15.83;4.83;;;5.30;99.90;;;;;;5000300;28;20072;-83
2022/12/30 09:04:31;;;;;;;15.83;4.30;;;5.30;99.90;;;;;;5014290;28;20041;-83
2022/12/30 09:06:56;;;;;;;17.77;5.10;;;5.40;99.90;;;;;;4961234;28;20042;-83
2022/12/30 09:09:22;;;;;;;14.27;4.10;;;5.40;99.90;;;;;;4981906;28;20038;-81
2022/12/30 09:11:48;;;;;;;15.63;4.13;;;5.40;99.90;;;;;;5014523;28;20755;-82
2022/12/30 09:14:16;;;;;;;12.47;4.73;;;5.50;99.90;;;;;;5007175;28;20499;-83
2022/12/30 09:16:42;;;;;;;13.63;4.60;;;5.50;99.90;;;;;;5024351;28;20045;-82
2022/12/30 09:19:08;;;;;;;17.60;4.30;;;5.50;99.90;;;;;;4981561;28;20041;-84
2022/12/30 09:21:34;;;;;;;12.70;4.17;;;5.50;99.90;;;;;;4985859;28;20097;-85
2022/12/30 09:24:00;;;;;;;12.27;3.70;;;5.60;99.90;;;;;;4996171;28;20409;-84
2022/12/30 09:26:27;;;;;;;12.03;4.17;;;5.60;99.90;;;;;;4988059;28;20187;-84
2022/12/30 09:28:53;;;;;;;11.57;4.23;;;5.70;99.90;;;;;;4996150;28;20039;-84
2022/12/30 09:31:20;;;;;;;10.20;3.67;;;5.70;99.90;;;;;;4997583;28;20053;-83
2022/12/30 09:33:46;;;;;;;13.20;3.87;;;5.80;99.90;;;;;;4997718;28;20073;-81
2022/12/30 09:36:12;;;;;;;15.40;4.20;;;5.80;99.90;;;;;;4980773;28;20120;-84
2022/12/30 09:38:38;;;;;;;13.90;3.90;;;5.80;99.90;;;;;;4997155;28;20576;-82
2022/12/30 09:41:18;;;;;;;16.23;4.17;;;5.90;99.90;;;;;;4981170;28;20038;-81
2022/12/30 09:44:17;;;;;;;16.97;4.13;;;5.90;99.90;;;;;;4997592;28;20030;-83
2022/12/30 09:47:33;;;;;;;11.27;3.90;;;5.90;99.90;;;;;;4980797;28;20037;-83
2022/12/30 09:50:05;;;;;;;11.07;3.20;;;6.00;99.90;;;;;;4937988;29;20051;-82
2022/12/30 09:52:40;;;;;;;11.07;3.42;;;6.00;99.90;;;;;;4984201;28;20481;-83
2022/12/30 09:55:09;;;;;;;11.87;3.17;;;6.10;99.90;;;;;;5013545;28;20042;-86
2022/12/30 09:57:36;;;;;;;11.50;3.60;;;6.10;99.90;;;;;;4996766;28;20042;-83
2022/12/30 10:00:11;;;;;;;12.07;3.20;;;6.10;99.90;;;;;;5013105;28;20489;-83
2022/12/30 10:03:10;;;;;;;12.70;3.60;;;6.20;99.90;;;;;;5013098;28;20141;-82
2022/12/30 10:06:05;;;;;;;11.23;3.03;;;6.20;99.90;;;;;;4999136;28;20060;-84
2022/12/30 10:09:04;;;;;;;12.93;3.33;;;6.20;99.90;;;;;;4996341;28;20087;-84
2022/12/30 10:11:36;;;;;;;10.80;3.20;;;6.30;99.90;;;;;;4996291;28;20050;-82
2022/12/30 10:14:05;;;;;;;10.63;3.57;;;6.30;99.90;;;;;;5012591;28;20038;-83
2022/12/30 10:16:49;;;;;;;9.50;3.43;;;6.40;99.90;;;;;;5012991;28;20478;-85
2022/12/30 10:19:24;;;;;;;7.63;2.97;;;6.40;99.90;;;;;;5012947;28;20064;-82
2022/12/30 10:21:57;;;;;;;11.30;3.00;;;6.40;99.90;;;;;;4996734;28;20045;-83
2022/12/30 10:24:32;;;;;;;9.27;3.30;;;6.50;99.90;;;;;;4997274;28;20091;-80
2022/12/30 10:27:05;;;;;;;9.47;3.00;;;6.50;99.90;;;;;;4996626;28;20049;-83
2022/12/30 10:29:34;;;;;;;11.43;3.13;;;6.50;99.90;;;;;;4996559;28;20054;-82
2022/12/30 10:32:20;;;;;;;13.67;3.47;;;6.60;99.90;;;;;;4996870;28;20046;-81
2022/12/30 10:34:48;;;;;;;13.20;3.93;;;6.70;99.90;;;;;;4997098;28;20362;-81
2022/12/30 10:37:29;;;;;;;10.70;3.97;;;6.70;99.90;;;;;;5013239;28;20042;-82
2022/12/30 10:39:55;;;;;;;16.50;4.10;;;6.80;99.90;;;;;;4996334;28;20041;-82
2022/12/30 10:42:55;;;;;;;10.63;3.13;;;6.80;99.90;;;;;;4980283;28;20048;-83
2022/12/30 10:45:56;;;;;;;10.17;3.73;;;6.90;99.90;;;;;;5012902;28;20437;-82
2022/12/30 10:49:02;;;;;;;10.60;3.50;;;6.90;99.90;;;;;;5012479;28;20096;-80
2022/12/30 10:51:28;;;;;;;7.07;3.70;;;6.90;99.90;;;;;;4988380;28;20658;-83
2022/12/30 10:53:56;;;;;;;9.43;3.57;;;7.00;99.90;;;;;;5003825;28;20042;-81
2022/12/30 10:56:28;;;;;;;9.30;3.57;;;7.00;99.90;;;;;;4990651;28;20125;-82
2022/12/30 10:58:56;;;;;;;;;;;7.10;99.90;;;;;;5012373;28;20362;-81
2022/12/30 11:01:26;;;;;;;10.20;3.37;;;7.10;99.90;;;;;;5013797;28;19924;-81
2022/12/30 11:03:56;;;;;;;8.47;3.20;;;7.10;99.90;;;;;;5012132;28;20058;-83
2022/12/30 11:06:35;;;;;;;6.43;2.60;;;7.10;99.90;;;;;;5016565;28;20514;-82
2022/12/30 11:09:13;;;;;;;9.27;3.20;;;7.20;99.90;;;;;;5009633;28;20560;-82
2022/12/30 11:14:42;;;;;;;8.30;3.78;;;7.20;99.90;;;;;;4997502;28;20046;-84
2022/12/30 11:17:22;;;;;;;9.33;3.27;;;7.20;99.90;;;;;;4979594;28;20038;-84
2022/12/30 11:19:54;;;;;;;10.23;3.20;;;7.20;99.90;;;;;;4995482;28;20046;-82
2022/12/30 11:22:21;;;;;;;9.52;3.25;;;7.20;99.90;;;;;;4994885;28;20046;-83
2022/12/30 11:25:01;;;;;;;6.00;2.70;;;7.20;99.90;;;;;;4991707;28;20545;-82
2022/12/30 11:27:35;;;;;;;9.73;3.63;;;7.20;99.90;;;;;;5003474;28;20096;-83
2022/12/30 11:30:01;;;;;;;7.97;3.00;;;7.30;99.90;;;;;;5005747;28;20133;-82
2022/12/30 11:32:26;;;;;;;9.03;3.27;;;7.30;99.90;;;;;;4997091;28;20042;-82
2022/12/30 11:34:52;;;;;;;7.83;2.73;;;7.40;99.90;;;;;;4995908;28;20816;-83
2022/12/30 11:37:36;;;;;;;11.03;2.90;;;7.40;99.90;;;;;;4995393;28;20136;-82
2022/12/30 11:40:26;;;;;;;9.83;3.33;;;7.40;99.90;;;;;;5005725;28;20046;-81
2022/12/30 11:43:12;;;;;;;9.93;3.23;;;7.50;99.90;;;;;;5011294;28;20038;-81
2022/12/30 11:45:46;;;;;;;10.63;2.70;;;7.50;99.90;;;;;;4991836;28;20038;-83
2022/12/30 11:48:29;;;;;;;5.17;2.67;;;7.50;99.90;;;;;;4994101;28;20474;-80
2022/12/30 11:50:55;;;;;;;9.30;2.57;;;7.50;99.90;;;;;;5011409;28;20046;-82
2022/12/30 11:53:27;;;;;;;6.87;2.53;;;7.60;99.90;;;;;;4978864;28;20033;-84
2022/12/30 11:55:53;;;;;;;;;;;7.60;99.90;;;;;;4992355;28;20042;-82
2022/12/30 11:58:20;;;;;;;7.63;2.50;;;7.60;99.90;;;;;;5008119;28;19924;-83
2022/12/30 12:00:57;;;;;;;6.53;2.30;;;7.70;99.90;;;;;;4986320;28;20069;-82
2022/12/30 12:03:23;;;;;;;4.70;2.20;;;7.70;99.90;;;;;;4994915;28;20069;-80
2022/12/30 12:06:04;;;;;;;7.10;2.20;;;7.70;99.90;;;;;;4995513;28;20445;-84
2022/12/30 12:08:35;;;;;;;5.20;2.20;;;7.80;99.90;;;;;;4995885;28;20077;-85
2022/12/30 12:11:09;;;;;;;6.97;2.50;;;7.80;99.90;;;;;;5015351;28;20042;-82
2022/12/30 12:14:00;;;;;;;8.80;2.23;;;7.80;99.90;;;;;;4999249;28;20121;-82
2022/12/30 12:16:50;;;;;;;6.97;2.47;;;7.80;99.90;;;;;;4999258;28;20045;-79
2022/12/30 12:19:50;;;;;;;7.47;2.60;;;7.90;99.90;;;;;;5021746;28;20048;-82
2022/12/30 12:22:39;;;;;;;7.67;2.27;;;7.90;99.90;;;;;;4991257;28;20042;-84
2022/12/30 12:25:38;;;;;;;5.40;2.13;;;7.90;99.90;;;;;;5005615;28;20110;-83
2022/12/30 12:28:05;;;;;;;6.87;2.50;;;7.90;99.90;;;;;;5018391;28;20038;-80
2022/12/30 12:30:50;;;;;;;4.80;2.20;;;7.90;99.90;;;;;;4998214;28;20048;-82
2022/12/30 12:33:39;;;;;;;7.40;2.60;;;8.00;99.90;;;;;;5001087;28;20045;-83
2022/12/30 12:36:25;;;;;;;6.60;3.00;;;8.00;99.90;;;;;;5015184;28;20096;-83
2022/12/30 12:38:58;;;;;;;6.63;3.00;;;8.00;99.90;;;;;;4995437;28;20044;-82
2022/12/30 12:41:49;;;;;;;10.10;3.60;;;8.00;99.90;;;;;;4995402;28;20043;-81
2022/12/30 12:44:34;;;;;;;11.53;3.20;;;8.00;99.90;;;;;;5005241;28;20124;-82
2022/12/30 12:47:31;;;;;;;5.20;2.07;;;8.10;99.90;;;;;;4998839;28;20061;-81
2022/12/30 12:50:30;;;;;;;5.60;2.17;;;8.10;99.90;;;;;;5009996;28;20046;-84
2022/12/30 12:53:30;;;;;;;5.53;1.87;;;8.20;99.90;;;;;;5002381;28;20042;-82
2022/12/30 12:56:17;;;;;;;11.40;2.37;;;8.20;99.90;;;;;;5010752;28;20042;-83
2022/12/30 12:58:58;;;;;;;5.97;2.03;;;8.20;99.90;;;;;;4994992;28;20090;-85
2022/12/30 13:01:32;;;;;;;4.37;1.60;;;8.20;99.90;;;;;;5002989;28;20046;-86
2022/12/30 13:04:33;;;;;;;5.97;1.90;;;8.30;99.90;;;;;;5011577;28;20137;-87
2022/12/30 13:07:17;;;;;;;4.70;1.80;;;8.30;99.90;;;;;;4964647;28;20050;-83
2022/12/30 13:09:56;;;;;;;5.07;1.90;;;8.30;99.90;;;;;;5004567;28;20042;-85
2022/12/30 13:12:42;;;;;;;9.03;2.00;;;8.30;99.90;;;;;;4995160;28;20042;-85
2022/12/30 13:15:21;;;;;;;6.77;2.00;;;8.30;99.90;;;;;;4984633;28;20071;-87
2022/12/30 13:17:48;;;;;;;4.60;1.83;;;8.30;99.90;;;;;;5017408;28;20033;-84
2022/12/30 13:20:18;;;;;;;5.17;1.77;;;8.40;99.90;;;;;;5002688;28;20105;-81
2022/12/30 13:22:47;;;;;;;5.23;1.60;;;8.40;99.90;;;;;;4997550;28;20486;-85
2022/12/30 13:25:19;;;;;;;4.47;1.47;;;8.40;99.90;;;;;;5005055;28;20125;-85
2022/12/30 13:27:48;;;;;;;4.53;2.10;;;8.40;99.90;;;;;;5013713;28;20551;-84
2022/12/30 13:30:17;;;;;;;4.30;1.43;;;8.50;99.90;;;;;;4995041;28;20046;-84
2022/12/30 13:33:04;;;;;;;8.00;2.03;;;8.50;99.90;;;;;;5015108;28;20489;-85
2022/12/30 13:36:04;;;;;;;6.53;1.70;;;8.50;99.90;;;;;;5003569;28;20049;-85
2022/12/30 13:38:55;;;;;;;9.27;1.90;;;8.50;99.90;;;;;;5009860;28;20061;-82
2022/12/30 13:41:21;;;;;;;7.60;1.70;;;8.50;99.90;;;;;;5004709;28;20042;-82
2022/12/30 13:43:53;;;;;;;5.63;1.40;;;8.50;99.90;;;;;;5011031;28;20042;-83
2022/12/30 13:46:32;;;;;;;7.17;1.60;;;8.60;99.90;;;;;;5007109;28;20045;-82
2022/12/30 13:49:03;;;;;;;5.20;1.73;;;8.60;99.90;;;;;;4997342;28;20450;-82
2022/12/30 13:51:30;;;;;;;7.10;2.30;;;8.60;99.90;;;;;;5007236;28;20035;-85
2022/12/30 13:54:16;;;;;;;4.90;1.60;;;8.60;99.90;;;;;;4997469;28;20038;-80
2022/12/30 13:56:45;;;;;;;4.60;2.10;;;8.60;99.90;;;;;;5012080;28;20030;-84
2022/12/30 13:59:28;;;;;;;3.37;1.70;;;8.60;99.90;;;;;;4997279;28;20073;-83
2022/12/30 14:02:21;;;;;;;7.03;2.80;;;8.60;99.90;;;;;;4997093;28;20033;-82
2022/12/30 14:04:50;;;;;;;6.43;2.40;;;8.60;99.90;;;;;;4966484;28;20050;-83
2022/12/30 14:07:37;;;;;;;6.53;2.30;;;8.60;99.90;;;;;;4996942;28;20073;-84
2022/12/30 14:10:15;;;;;;;4.60;1.43;;;8.70;99.90;;;;;;5006791;28;20045;-84